Terminal Aerodrome Forecast
Issued by NWS

Home | Current Version | Previous Version | Text Only | Print | Product List | Glossary On
Versions: 1 2 3 4 5 6 7 8 9 10 11 12 13 14 15 16 17 18 19 20 21
000
FTUS43 KAPX 032149 AAB
TAFTVC
TAF AMD
KTVC 032149Z 0322/0418 04005KT P6SM -SHRA SCT005 OVC014
     FM040200 00000KT 6SM BR VCSH OVC009
     FM040800 00000KT 4SM -SHRA BR OVC012
     FM041600 09005KT P6SM VCSH OVC022=

USA.gov is the U.S. government's official web portal to all federal, state and local government web resources and services.